Ardenvoir, WA (98811)

3:24 PM PDT on May 05, 2015 (GMT -0700)
Entiat Valley | | Change Station
CLOSE
Current Station
Personal Weather Station
Location: Entiat, WA
Elevation: 1050 ft
Nearby Weather Stations

Elev 1050 ft 47.70 °N, 120.33 °W | Updated 10 seconds ago

Clear
Clear
58.2 °F
Feels Like 58.2 °F
N
15.0
Wind Variable Wind from North
Gusts 19.0 mph

Today
High -- | Low -- °F
--% Chance of Precip.
Yesterday
High -- | Low -- °F
Precip. -- in
5:37 AM 8:19 PM
Full, 97% visible
Pressure 29.92 in
Visibility 10.0 miles
Clouds Mostly Cloudy 8000 ft
Dew Point 33 °F
Humidity 38%
Rainfall 0.00 in
Snow Depth Not available.
UV 4 out of 12
Pollen 8.60 out of 12
Air Quality Not available.
Flu Activity Sporadic
METAR KEAT 052155Z AUTO 33011G18KT 10SM BKN080 17/M06 A2992 RMK AO2 SLP130 T01721056

More Conditions Fewer Conditions

Pressure 29.92 in
Visibility 10.0 miles
Clouds Mostly Cloudy 8000 ft
Dew Point 33 °F
Humidity 38%
Rainfall 0.00 in
Snow Depth Not available.
UV 4 out of 12
Pollen 8.60 out of 12
Air Quality Not available.
Flu Activity Sporadic
METAR KEAT 052155Z AUTO 33011G18KT 10SM BKN080 17/M06 A2992 RMK AO2 SLP130 T01721056

More Conditions Fewer Conditions

10-Day Weather Forecast

Almanac

Astronomy

May. 05, 2015 Rise Set
Actual Time
Civil Twilight
Nautical Twilight
Astronomical Twilight
Moon
Length of Visible Light
Length of Day
Tomorrow will be .
, % of the Moon is Illuminated

Today's Extremes

State Highs State Lows

Community

WunderPhotos

Upload Photos

1,818,998 photos uploaded!

WunderBlogs® & News

Nearby

Air Quality

  Air Quality AQ Index Pollutant
Not available.

Snow Depth

Station Depth Elevation

Earthquake Activity

City Distance Mag. Time & Date
Minimum magnitude displayed is 2.5.

Coastal Water Temperatures

Place Temperature

Stations

Nearby Weather Stations

Station Location Temp. Windchill Dew Point Humidity Wind Precip. Elev Updated Type